ADDS METAR Data INFO
IDs: Format: Raw Decoded Include TAF

Data at: 1241 UTC 19 Oct 2017

KFKA 191235Z AUTO 23006KT 10SM CLR 06/M02 A3011 RMK AO2 T00551017
KFKA 191214Z AUTO 22007KT 10SM CLR 05/M01 A3010 RMK AO2 T00511011
KFKA 191155Z AUTO 21005KT 10SM CLR 06/M01 A3010 RMK AO2 T00581014 10081 20042
KFKA 191135Z AUTO 19004KT 10SM CLR 05/M01 A3009 RMK AO2 T00501012
KFKA 191114Z AUTO 21004KT 10SM CLR 05/M01 A3009 RMK AO2 T00501010
KFKA 191055Z AUTO 00000KT 10SM CLR 05/M01 A3009 RMK AO2 T00531013
KFKA 191035Z AUTO 00000KT 10SM CLR 07/M02 A3009 RMK AO2 T00651021
KFKA 191014Z AUTO 00000KT 10SM CLR 08/M03 A3008 RMK AO2 T00751029
KFKA 190955Z AUTO 34003KT 10SM CLR 08/M03 A3007 RMK AO2 T00751026
KFKA 190935Z AUTO 31003KT 10SM CLR 08/M03 A3007 RMK AO2 T00801030
KFKA 190914Z AUTO 32004KT 10SM CLR 08/M03 A3007 RMK AO2 T00761026
KFKA 190855Z AUTO 33003KT 10SM CLR 07/M02 A3007 RMK AO2 T00651019
KFKA 190835Z AUTO 31004KT 10SM CLR 07/M02 A3007 RMK AO2 T00731024
KFKA 190814Z AUTO 31004KT 10SM CLR 07/M01 A3007 RMK AO2 T00651012
KFKA 190755Z AUTO 30005KT 10SM CLR 08/M02 A3007 RMK AO2 T00791025
KFKA 190735Z AUTO 32005KT 10SM CLR 07/M01 A3006 RMK AO2 T00681015
KFKA 190714Z AUTO 31006KT 10SM CLR 07/M02 A3006 RMK AO2 T00721016
KFKA 190655Z AUTO 31006KT 10SM CLR 08/M02 A3005 RMK AO2 T00761020
KFKA 190635Z AUTO 32006KT 10SM CLR 08/M02 A3005 RMK AO2 T00781019
KFKA 190614Z AUTO 33006KT 10SM CLR 08/M02 A3005 RMK AO2 T00811020
KFKA 190555Z AUTO 32006KT 10SM CLR 08/M02 A3004 RMK AO2 T00801016 10165 20080 402200080
KFKA 190535Z AUTO 32005KT 10SM CLR 09/M02 A3004 RMK AO2 T00871021
KFKA 190514Z AUTO 33007KT 10SM CLR 10/M02 A3004 RMK AO2 T00961023
KFKA 190455Z AUTO 33008KT 10SM CLR 10/M02 A3004 RMK AO2 T01021022
KFKA 190435Z AUTO 32009KT 10SM CLR 11/M02 A3003 RMK AO2 T01061018
KFKA 190415Z AUTO 31009KT 10SM CLR 11/M01 A3003 RMK AO2 T01111012
KFKA 190354Z AUTO 30010G14KT 10SM CLR 12/00 A3002 RMK AO2 T01161003
KFKA 190335Z AUTO 31010KT 10SM CLR 12/00 A3001 RMK AO2 T01221001
KFKA 190315Z AUTO 31009KT 10SM CLR 13/00 A3001 RMK AO2 T01250000
KFKA 190255Z AUTO 30009KT 10SM CLR 13/01 A3001 RMK AO2 T01260013
KFKA 190235Z AUTO 30008KT 10SM CLR 13/04 A3000 RMK AO2 T01260036
KFKA 190215Z AUTO 29010KT 10SM CLR 14/04 A2999 RMK AO2 T01360043
KFKA 190155Z AUTO 28007KT 10SM CLR 13/06 A2999 RMK AO2 T01280056
KFKA 190135Z AUTO 28008KT 10SM CLR 15/06 A2999 RMK AO2 T01450057
KFKA 190115Z AUTO 27010KT 10SM CLR 15/07 A2998 RMK AO2 T01520068
KFKA 190055Z AUTO 26008KT 10SM CLR 16/07 A2998 RMK AO2 T01600072
KFKA 190035Z AUTO 25007KT 10SM CLR 16/07 A2996 RMK AO2 T01630073
KFKA 190015Z AUTO 25008KT 10SM CLR 16/07 A2996 RMK AO2 T01600072
KFKA 182355Z AUTO 27007KT 10SM CLR 15/07 A2996 RMK AO2 T01530074 10220 20153
KFKA 182335Z AUTO 27007KT 10SM CLR 16/08 A2995 RMK AO2 T01600075
KFKA 182314Z AUTO 27008KT 10SM CLR 17/08 A2994 RMK AO2 T01660080
KFKA 182255Z AUTO 26007KT 10SM CLR 18/08 A2992 RMK AO2 T01780084
KFKA 182235Z AUTO 27009KT 10SM CLR 19/09 A2992 RMK AO2 T01880087
KFKA 182215Z AUTO 28010G14KT 7SM CLR 20/09 A2991 RMK AO2 T01970087
KFKA 182155Z AUTO 28012KT 10SM CLR 21/09 A2990 RMK AO2 T02090086
KFKA 182134Z AUTO 27015G21KT 10SM CLR 21/08 A2990 RMK AO2 T02130082
KFKA 182115Z AUTO 25017G22KT 10SM CLR 22/08 A2990 RMK AO2 T02180077
KFKA 182055Z AUTO 23015G20KT 10SM CLR 22/08 A2990 RMK AO2 T02180079
KFKA 182035Z AUTO 25012G19KT 10SM CLR 22/08 A2989 RMK AO2 T02180080
KFKA 182015Z AUTO 22015G21KT 10SM CLR 21/08 A2988 RMK AO2 T02100078
KFKA 181955Z AUTO 21012G20KT 10SM CLR 21/08 A2987 RMK AO2 T02110081
KFKA 181935Z AUTO 22014G19KT 10SM CLR 22/08 A2987 RMK AO2 T02150081
KFKA 181915Z AUTO 21013G18KT 10SM CLR 21/08 A2988 RMK AO2 T02070082
KFKA 181855Z AUTO 21015G21KT 10SM CLR 21/08 A2989 RMK AO2 T02090081
KFKA 181835Z AUTO 22015G21KT 10SM CLR 21/08 A2988 RMK AO2 T02100080
KFKA 181815Z AUTO 20016G21KT 10SM CLR 21/08 A2987 RMK AO2 T02080080
KFKA 181755Z AUTO 19013G22KT 7SM CLR 20/09 A2988 RMK AO2 T02010085 10201 20080
KFKA 181735Z AUTO 19011G21KT 7SM CLR 20/09 A2989 RMK AO2 T01960088
KFKA 181715Z AUTO 18016G21KT 7SM CLR 19/08 A2989 RMK AO2 T01870082
KFKA 181655Z AUTO 18015G19KT 10SM CLR 18/08 A2990 RMK AO2 T01790084
KFKA 181634Z AUTO 19011G15KT 7SM CLR 18/08 A2991 RMK AO2 T01750083
KFKA 181615Z AUTO 19015G18KT 7SM CLR 17/08 A2991 RMK AO2 T01660078
KFKA 181555Z AUTO 19013KT 10SM CLR 16/08 A2991 RMK AO2 T01600079
KFKA 181534Z AUTO 19012G17KT 10SM CLR 15/08 A2992 RMK AO2 T01500080
KFKA 181515Z AUTO 19013KT 10SM CLR 14/08 A2991 RMK AO2 T01380078
KFKA 181455Z AUTO 19014KT 7SM CLR 13/08 A2992 RMK AO2 T01300076
KFKA 181434Z AUTO 19011G17KT 10SM CLR 12/07 A2992 RMK AO2 T01200073
KFKA 181415Z AUTO 20013KT 10SM CLR 11/07 A2992 RMK AO2 T01100070
KFKA 181355Z AUTO 19013G17KT 10SM CLR 10/07 A2992 RMK AO2 T01040068
KFKA 181334Z AUTO 19012KT 10SM CLR 09/06 A2992 RMK AO2 T00930064
KFKA 181315Z AUTO 19011KT 10SM CLR 09/06 A2992 RMK AO2 T00850061
KFKA 181255Z AUTO 19010KT 10SM CLR 08/06 A2993 RMK AO2 T00810060
KFKA 181234Z AUTO 19012KT 10SM CLR 08/06 A2994 RMK AO2 T00810058
KFKA 181215Z AUTO 20010KT 10SM CLR 08/06 A2994 RMK AO2 T00810058
KFKA 181155Z AUTO 19011KT 10SM CLR 09/06 A2995 RMK AO2 T00850060 10117 20085
KFKA 181134Z AUTO 19011KT 10SM CLR 09/06 A2995 RMK AO2 T00860060
KFKA 181115Z AUTO 20011KT 10SM CLR 09/06 A2995 RMK AO2 T00870060
KFKA 181055Z AUTO 19009KT 10SM CLR 09/06 A2995 RMK AO2 T00900060
KFKA 181034Z AUTO 20010KT 10SM CLR 09/06 A2995 RMK AO2 T00920060
KFKA 181015Z AUTO 19010KT 10SM CLR 09/06 A2995 RMK AO2 T00930061
KFKA 180955Z AUTO 19008KT 10SM CLR 09/06 A2995 RMK AO2 T00900060
KFKA 180934Z AUTO 19008KT 10SM CLR 10/06 A2995 RMK AO2 T00960060
KFKA 180915Z AUTO 19008KT 10SM CLR 10/06 A2995 RMK AO2 T00970061
KFKA 180855Z AUTO 19010G14KT 10SM CLR 10/06 A2995 RMK AO2 T00990061
KFKA 180834Z AUTO 19009KT 10SM CLR 10/06 A2995 RMK AO2 T01010061
KFKA 180815Z AUTO 19012KT 10SM CLR 11/06 A2996 RMK AO2 T01050062
KFKA 180755Z AUTO 18009KT 10SM CLR 11/06 A2997 RMK AO2 T01050063
KFKA 180734Z AUTO 18008KT 10SM CLR 11/06 A2998 RMK AO2 T01070062
KFKA 180715Z AUTO 18008KT 10SM CLR 11/06 A2999 RMK AO2 T01060062
KFKA 180655Z AUTO 18008G16KT 10SM CLR 11/06 A2999 RMK AO2 T01090062
KFKA 180634Z AUTO 19007KT 10SM CLR 11/06 A2999 RMK AO2 T01100061
KFKA 180615Z AUTO 19008G15KT 10SM CLR 12/06 A2999 RMK AO2 T01160062
KFKA 180555Z AUTO 20008KT 10SM CLR 12/06 A2999 RMK AO2 T01160061 10159 20116 402110065
KFKA 180534Z AUTO 20007KT 10SM CLR 12/06 A2999 RMK AO2 T01200062
KFKA 180515Z AUTO 20008KT 10SM CLR 13/06 A2999 RMK AO2 T01250062
KFKA 180455Z AUTO 20010KT 10SM CLR 13/06 A3000 RMK AO2 T01260062
KFKA 180434Z AUTO 20011G15KT 10SM CLR 13/06 A3000 RMK AO2 T01300062
KFKA 180415Z AUTO 20009KT 10SM CLR 13/06 A3001 RMK AO2 T01300062
KFKA 180355Z AUTO 20010G14KT 10SM CLR 13/06 A3001 RMK AO2 T01320060
KFKA 180334Z AUTO 20009G14KT 10SM CLR 13/06 A3001 RMK AO2 T01310060
KFKA 180315Z AUTO 20009KT 10SM CLR 13/06 A3001 RMK AO2 T01310060
KFKA 180255Z AUTO 20006KT 10SM CLR 14/06 A3001 RMK AO2 T01350058
KFKA 180234Z AUTO 20007KT 10SM CLR 14/06 A3001 RMK AO2 T01410057
KFKA 180215Z AUTO 20009KT 10SM CLR 15/06 A3001 RMK AO2 T01450057
KFKA 180155Z AUTO 20009KT 10SM CLR 15/06 A3001 RMK AO2 T01460060
KFKA 180134Z AUTO 20008KT 7SM CLR 15/06 A3001 RMK AO2 T01490061
KFKA 180115Z AUTO 20007KT 10SM CLR 15/06 A3001 RMK AO2 T01500062
KFKA 180055Z AUTO 20007KT 10SM CLR 15/06 A3001 RMK AO2 T01500063